sensor_id;sensor_type;location;lat;lon;timestamp;P1;durP1;ratioP1;P2;durP2;ratioP2
22205;SDS011;11272;50.104;8.754;2022-12-07T00:01:06;14.17;;;7.33;;
22205;SDS011;11272;50.104;8.754;2022-12-07T00:03:33;13.43;;;6.90;;
22205;SDS011;11272;50.104;8.754;2022-12-07T00:06:00;13.50;;;6.97;;
22205;SDS011;11272;50.104;8.754;2022-12-07T00:08:26;15.03;;;7.07;;
22205;SDS011;11272;50.104;8.754;2022-12-07T00:10:52;14.37;;;7.50;;
22205;SDS011;11272;50.104;8.754;2022-12-07T00:13:17;17.47;;;7.37;;
22205;SDS011;11272;50.104;8.754;2022-12-07T00:15:43;14.40;;;7.63;;
22205;SDS011;11272;50.104;8.754;2022-12-07T00:18:09;15.23;;;7.63;;
22205;SDS011;11272;50.104;8.754;2022-12-07T00:20:35;16.07;;;7.10;;
22205;SDS011;11272;50.104;8.754;2022-12-07T00:23:01;15.03;;;8.23;;
22205;SDS011;11272;50.104;8.754;2022-12-07T00:25:26;14.63;;;7.63;;
22205;SDS011;11272;50.104;8.754;2022-12-07T00:27:52;19.60;;;8.00;;
22205;SDS011;11272;50.104;8.754;2022-12-07T00:30:20;17.03;;;7.43;;
22205;SDS011;11272;50.104;8.754;2022-12-07T00:32:46;16.07;;;7.50;;
22205;SDS011;11272;50.104;8.754;2022-12-07T00:35:12;17.67;;;8.03;;
22205;SDS011;11272;50.104;8.754;2022-12-07T00:37:38;14.23;;;6.73;;
22205;SDS011;11272;50.104;8.754;2022-12-07T00:40:04;19.47;;;7.43;;
22205;SDS011;11272;50.104;8.754;2022-12-07T00:42:30;15.53;;;7.63;;
22205;SDS011;11272;50.104;8.754;2022-12-07T00:44:56;17.20;;;7.53;;
22205;SDS011;11272;50.104;8.754;2022-12-07T00:47:21;16.40;;;7.87;;
22205;SDS011;11272;50.104;8.754;2022-12-07T00:49:47;17.10;;;7.83;;
22205;SDS011;11272;50.104;8.754;2022-12-07T00:52:12;12.83;;;6.93;;
22205;SDS011;11272;50.104;8.754;2022-12-07T00:54:38;14.87;;;8.00;;
22205;SDS011;11272;50.104;8.754;2022-12-07T00:57:04;17.83;;;7.77;;
22205;SDS011;11272;50.104;8.754;2022-12-07T00:59:30;14.17;;;7.20;;
22205;SDS011;11272;50.104;8.754;2022-12-07T01:01:55;16.73;;;8.67;;
22205;SDS011;11272;50.104;8.754;2022-12-07T01:04:21;17.10;;;7.70;;
22205;SDS011;11272;50.104;8.754;2022-12-07T01:06:46;16.33;;;8.20;;
22205;SDS011;11272;50.104;8.754;2022-12-07T01:09:12;17.30;;;8.33;;
22205;SDS011;11272;50.104;8.754;2022-12-07T01:11:37;16.07;;;7.97;;
22205;SDS011;11272;50.104;8.754;2022-12-07T01:14:03;16.00;;;8.33;;
22205;SDS011;11272;50.104;8.754;2022-12-07T01:16:29;18.50;;;7.37;;
22205;SDS011;11272;50.104;8.754;2022-12-07T01:18:57;14.30;;;6.97;;
22205;SDS011;11272;50.104;8.754;2022-12-07T01:21:25;14.90;;;7.40;;
22205;SDS011;11272;50.104;8.754;2022-12-07T01:24:06;16.13;;;7.93;;
22205;SDS011;11272;50.104;8.754;2022-12-07T01:26:35;16.00;;;7.80;;
22205;SDS011;11272;50.104;8.754;2022-12-07T01:29:01;17.63;;;8.13;;
22205;SDS011;11272;50.104;8.754;2022-12-07T01:31:27;16.97;;;7.83;;
22205;SDS011;11272;50.104;8.754;2022-12-07T01:33:55;15.00;;;7.37;;
22205;SDS011;11272;50.104;8.754;2022-12-07T01:36:23;14.33;;;7.43;;
22205;SDS011;11272;50.104;8.754;2022-12-07T01:38:58;11.00;;;4.77;;
22205;SDS011;11272;50.104;8.754;2022-12-07T01:41:27;18.33;;;8.07;;
22205;SDS011;11272;50.104;8.754;2022-12-07T01:46:47;13.20;;;6.53;;
22205;SDS011;11272;50.104;8.754;2022-12-07T01:52:31;16.67;;;7.53;;
22205;SDS011;11272;50.104;8.754;2022-12-07T01:55:08;13.90;;;6.87;;
22205;SDS011;11272;50.104;8.754;2022-12-07T01:57:38;20.10;;;7.97;;
22205;SDS011;11272;50.104;8.754;2022-12-07T02:00:09;19.23;;;7.23;;
22205;SDS011;11272;50.104;8.754;2022-12-07T02:02:55;13.67;;;6.70;;
22205;SDS011;11272;50.104;8.754;2022-12-07T02:05:26;15.00;;;6.77;;
22205;SDS011;11272;50.104;8.754;2022-12-07T02:07:53;13.47;;;6.50;;
22205;SDS011;11272;50.104;8.754;2022-12-07T02:10:22;16.50;;;6.60;;
22205;SDS011;11272;50.104;8.754;2022-12-07T02:13:01;15.40;;;6.67;;
22205;SDS011;11272;50.104;8.754;2022-12-07T02:16:16;15.53;;;6.83;;
22205;SDS011;11272;50.104;8.754;2022-12-07T02:24:18;13.83;;;6.00;;
22205;SDS011;11272;50.104;8.754;2022-12-07T02:29:33;13.97;;;6.53;;
22205;SDS011;11272;50.104;8.754;2022-12-07T02:32:15;12.87;;;7.17;;
22205;SDS011;11272;50.104;8.754;2022-12-07T02:34:49;14.20;;;6.30;;
22205;SDS011;11272;50.104;8.754;2022-12-07T02:42:43;8.77;;;4.33;;
22205;SDS011;11272;50.104;8.754;2022-12-07T02:45:17;11.00;;;5.40;;
22205;SDS011;11272;50.104;8.754;2022-12-07T02:47:47;14.07;;;6.67;;
22205;SDS011;11272;50.104;8.754;2022-12-07T02:50:17;12.07;;;6.03;;
22205;SDS011;11272;50.104;8.754;2022-12-07T02:52:45;13.07;;;6.17;;
22205;SDS011;11272;50.104;8.754;2022-12-07T02:55:11;17.33;;;5.97;;
22205;SDS011;11272;50.104;8.754;2022-12-07T02:57:54;15.97;;;6.53;;
22205;SDS011;11272;50.104;8.754;2022-12-07T03:00:44;12.47;;;6.03;;
22205;SDS011;11272;50.104;8.754;2022-12-07T03:03:20;15.50;;;6.77;;
22205;SDS011;11272;50.104;8.754;2022-12-07T03:08:24;10.87;;;4.97;;
22205;SDS011;11272;50.104;8.754;2022-12-07T03:11:00;12.63;;;6.13;;
22205;SDS011;11272;50.104;8.754;2022-12-07T03:16:23;11.47;;;5.57;;
22205;SDS011;11272;50.104;8.754;2022-12-07T03:18:55;13.50;;;5.80;;
22205;SDS011;11272;50.104;8.754;2022-12-07T03:21:27;11.63;;;5.73;;
22205;SDS011;11272;50.104;8.754;2022-12-07T03:24:03;13.33;;;5.57;;
22205;SDS011;11272;50.104;8.754;2022-12-07T03:26:35;12.07;;;5.30;;
22205;SDS011;11272;50.104;8.754;2022-12-07T03:29:14;12.83;;;5.20;;
22205;SDS011;11272;50.104;8.754;2022-12-07T03:31:46;10.17;;;5.70;;
22205;SDS011;11272;50.104;8.754;2022-12-07T03:34:17;10.73;;;5.53;;
22205;SDS011;11272;50.104;8.754;2022-12-07T03:36:57;9.83;;;5.60;;
22205;SDS011;11272;50.104;8.754;2022-12-07T03:39:30;14.10;;;5.60;;
22205;SDS011;11272;50.104;8.754;2022-12-07T03:42:11;12.40;;;5.37;;
22205;SDS011;11272;50.104;8.754;2022-12-07T03:44:37;10.37;;;4.80;;
22205;SDS011;11272;50.104;8.754;2022-12-07T03:53:09;9.87;;;4.87;;
22205;SDS011;11272;50.104;8.754;2022-12-07T03:55:42;11.07;;;5.53;;
22205;SDS011;11272;50.104;8.754;2022-12-07T03:58:11;12.57;;;4.90;;
22205;SDS011;11272;50.104;8.754;2022-12-07T04:00:40;12.83;;;5.63;;
22205;SDS011;11272;50.104;8.754;2022-12-07T04:03:06;8.47;;;5.00;;
22205;SDS011;11272;50.104;8.754;2022-12-07T04:05:32;9.93;;;4.80;;
22205;SDS011;11272;50.104;8.754;2022-12-07T04:07:57;12.33;;;4.90;;
22205;SDS011;11272;50.104;8.754;2022-12-07T04:10:23;9.60;;;4.77;;
22205;SDS011;11272;50.104;8.754;2022-12-07T04:12:49;12.03;;;5.37;;
22205;SDS011;11272;50.104;8.754;2022-12-07T04:15:14;9.17;;;4.60;;
22205;SDS011;11272;50.104;8.754;2022-12-07T04:17:40;12.83;;;5.33;;
22205;SDS011;11272;50.104;8.754;2022-12-07T04:20:06;8.33;;;4.77;;
22205;SDS011;11272;50.104;8.754;2022-12-07T04:22:32;10.53;;;5.33;;
22205;SDS011;11272;50.104;8.754;2022-12-07T04:24:58;10.97;;;5.27;;
22205;SDS011;11272;50.104;8.754;2022-12-07T04:27:24;8.60;;;4.77;;
22205;SDS011;11272;50.104;8.754;2022-12-07T04:29:49;10.83;;;5.37;;
22205;SDS011;11272;50.104;8.754;2022-12-07T04:32:15;11.30;;;5.23;;
22205;SDS011;11272;50.104;8.754;2022-12-07T04:34:41;13.63;;;5.33;;
22205;SDS011;11272;50.104;8.754;2022-12-07T04:37:06;12.17;;;5.40;;
22205;SDS011;11272;50.104;8.754;2022-12-07T04:39:32;12.07;;;5.40;;
22205;SDS011;11272;50.104;8.754;2022-12-07T04:41:59;10.23;;;5.57;;
22205;SDS011;11272;50.104;8.754;2022-12-07T04:44:25;10.03;;;5.13;;
22205;SDS011;11272;50.104;8.754;2022-12-07T04:46:51;15.53;;;5.47;;
22205;SDS011;11272;50.104;8.754;2022-12-07T04:49:18;10.47;;;5.03;;
22205;SDS011;11272;50.104;8.754;2022-12-07T04:51:44;10.53;;;4.57;;
22205;SDS011;11272;50.104;8.754;2022-12-07T04:54:10;8.83;;;4.77;;
22205;SDS011;11272;50.104;8.754;2022-12-07T04:56:37;8.87;;;4.80;;
22205;SDS011;11272;50.104;8.754;2022-12-07T04:59:03;10.13;;;5.00;;
22205;SDS011;11272;50.104;8.754;2022-12-07T05:01:30;9.07;;;4.80;;
22205;SDS011;11272;50.104;8.754;2022-12-07T05:03:55;9.03;;;4.80;;
22205;SDS011;11272;50.104;8.754;2022-12-07T05:06:21;9.57;;;4.87;;
22205;SDS011;11272;50.104;8.754;2022-12-07T05:08:47;18.07;;;5.07;;
22205;SDS011;11272;50.104;8.754;2022-12-07T05:11:13;9.47;;;4.67;;
22205;SDS011;11272;50.104;8.754;2022-12-07T05:14:00;9.97;;;5.53;;
22205;SDS011;11272;50.104;8.754;2022-12-07T05:16:27;10.43;;;4.83;;
22205;SDS011;11272;50.104;8.754;2022-12-07T05:18:53;7.67;;;3.57;;
22205;SDS011;11272;50.104;8.754;2022-12-07T05:21:19;10.13;;;4.90;;
22205;SDS011;11272;50.104;8.754;2022-12-07T05:23:45;12.13;;;4.93;;
22205;SDS011;11272;50.104;8.754;2022-12-07T05:26:10;13.27;;;5.83;;
22205;SDS011;11272;50.104;8.754;2022-12-07T05:28:36;13.27;;;5.47;;
22205;SDS011;11272;50.104;8.754;2022-12-07T05:31:01;12.07;;;6.10;;
22205;SDS011;11272;50.104;8.754;2022-12-07T05:33:27;13.57;;;5.53;;
22205;SDS011;11272;50.104;8.754;2022-12-07T05:35:53;13.77;;;6.17;;
22205;SDS011;11272;50.104;8.754;2022-12-07T05:38:18;11.60;;;5.77;;
22205;SDS011;11272;50.104;8.754;2022-12-07T05:40:44;11.47;;;5.13;;
22205;SDS011;11272;50.104;8.754;2022-12-07T05:43:09;12.23;;;5.30;;
22205;SDS011;11272;50.104;8.754;2022-12-07T05:45:36;11.83;;;5.87;;
22205;SDS011;11272;50.104;8.754;2022-12-07T05:48:01;12.30;;;6.27;;
22205;SDS011;11272;50.104;8.754;2022-12-07T05:53:19;10.93;;;5.80;;
22205;SDS011;11272;50.104;8.754;2022-12-07T05:55:44;11.23;;;5.73;;
22205;SDS011;11272;50.104;8.754;2022-12-07T05:58:10;12.07;;;5.93;;
22205;SDS011;11272;50.104;8.754;2022-12-07T06:00:55;11.67;;;5.60;;
22205;SDS011;11272;50.104;8.754;2022-12-07T06:03:21;13.47;;;5.63;;
22205;SDS011;11272;50.104;8.754;2022-12-07T06:05:47;11.23;;;5.87;;
22205;SDS011;11272;50.104;8.754;2022-12-07T06:08:12;11.00;;;5.60;;
22205;SDS011;11272;50.104;8.754;2022-12-07T06:10:40;9.80;;;5.40;;
22205;SDS011;11272;50.104;8.754;2022-12-07T06:13:05;13.00;;;5.47;;
22205;SDS011;11272;50.104;8.754;2022-12-07T06:18:26;12.27;;;5.67;;
22205;SDS011;11272;50.104;8.754;2022-12-07T06:20:51;11.53;;;6.17;;
22205;SDS011;11272;50.104;8.754;2022-12-07T06:23:17;12.17;;;5.97;;
22205;SDS011;11272;50.104;8.754;2022-12-07T06:25:45;10.97;;;5.73;;
22205;SDS011;11272;50.104;8.754;2022-12-07T06:28:11;11.93;;;5.70;;
22205;SDS011;11272;50.104;8.754;2022-12-07T06:30:36;10.40;;;5.17;;
22205;SDS011;11272;50.104;8.754;2022-12-07T06:33:02;14.97;;;6.00;;
22205;SDS011;11272;50.104;8.754;2022-12-07T06:35:27;11.50;;;6.00;;
22205;SDS011;11272;50.104;8.754;2022-12-07T06:37:53;11.83;;;5.17;;
22205;SDS011;11272;50.104;8.754;2022-12-07T06:45:56;15.87;;;6.03;;
22205;SDS011;11272;50.104;8.754;2022-12-07T06:51:17;12.73;;;6.27;;
22205;SDS011;11272;50.104;8.754;2022-12-07T06:53:42;12.40;;;5.97;;
22205;SDS011;11272;50.104;8.754;2022-12-07T06:56:08;13.53;;;6.37;;
22205;SDS011;11272;50.104;8.754;2022-12-07T06:58:34;14.50;;;7.10;;
22205;SDS011;11272;50.104;8.754;2022-12-07T07:00:59;13.67;;;6.70;;
22205;SDS011;11272;50.104;8.754;2022-12-07T07:03:25;15.43;;;6.80;;
22205;SDS011;11272;50.104;8.754;2022-12-07T07:05:51;13.00;;;6.43;;
22205;SDS011;11272;50.104;8.754;2022-12-07T07:08:16;15.57;;;6.50;;
22205;SDS011;11272;50.104;8.754;2022-12-07T07:10:42;12.87;;;6.40;;
22205;SDS011;11272;50.104;8.754;2022-12-07T07:13:07;13.90;;;6.30;;
22205;SDS011;11272;50.104;8.754;2022-12-07T07:15:34;13.17;;;5.80;;
22205;SDS011;11272;50.104;8.754;2022-12-07T07:17:59;12.67;;;6.27;;
22205;SDS011;11272;50.104;8.754;2022-12-07T07:20:26;14.10;;;6.27;;
22205;SDS011;11272;50.104;8.754;2022-12-07T07:22:55;13.83;;;6.20;;
22205;SDS011;11272;50.104;8.754;2022-12-07T07:25:21;14.17;;;6.73;;
22205;SDS011;11272;50.104;8.754;2022-12-07T07:27:46;16.40;;;6.83;;
22205;SDS011;11272;50.104;8.754;2022-12-07T07:30:12;13.83;;;6.23;;
22205;SDS011;11272;50.104;8.754;2022-12-07T07:32:38;13.10;;;6.40;;
22205;SDS011;11272;50.104;8.754;2022-12-07T07:35:04;13.53;;;6.57;;
22205;SDS011;11272;50.104;8.754;2022-12-07T07:37:30;16.07;;;6.53;;
22205;SDS011;11272;50.104;8.754;2022-12-07T07:39:55;13.33;;;6.30;;
22205;SDS011;11272;50.104;8.754;2022-12-07T07:42:21;22.43;;;8.23;;
22205;SDS011;11272;50.104;8.754;2022-12-07T07:44:47;12.80;;;6.17;;
22205;SDS011;11272;50.104;8.754;2022-12-07T07:47:13;16.27;;;6.77;;
22205;SDS011;11272;50.104;8.754;2022-12-07T07:49:38;17.07;;;7.07;;
22205;SDS011;11272;50.104;8.754;2022-12-07T07:52:05;13.70;;;6.63;;
22205;SDS011;11272;50.104;8.754;2022-12-07T07:54:31;14.33;;;6.77;;
22205;SDS011;11272;50.104;8.754;2022-12-07T07:56:57;14.40;;;6.43;;
22205;SDS011;11272;50.104;8.754;2022-12-07T07:59:22;13.03;;;6.60;;
22205;SDS011;11272;50.104;8.754;2022-12-07T08:01:48;14.23;;;7.23;;
22205;SDS011;11272;50.104;8.754;2022-12-07T08:04:14;13.00;;;6.07;;
22205;SDS011;11272;50.104;8.754;2022-12-07T08:06:41;13.73;;;5.80;;
22205;SDS011;11272;50.104;8.754;2022-12-07T08:09:07;16.73;;;6.27;;
22205;SDS011;11272;50.104;8.754;2022-12-07T08:11:34;22.17;;;6.60;;
22205;SDS011;11272;50.104;8.754;2022-12-07T08:14:00;16.77;;;7.00;;
22205;SDS011;11272;50.104;8.754;2022-12-07T08:16:25;15.40;;;6.23;;
22205;SDS011;11272;50.104;8.754;2022-12-07T08:18:51;16.07;;;6.97;;
22205;SDS011;11272;50.104;8.754;2022-12-07T08:21:17;15.03;;;7.93;;
22205;SDS011;11272;50.104;8.754;2022-12-07T08:23:43;17.33;;;7.83;;
22205;SDS011;11272;50.104;8.754;2022-12-07T08:26:10;15.13;;;7.27;;
22205;SDS011;11272;50.104;8.754;2022-12-07T08:28:37;12.67;;;6.80;;
22205;SDS011;11272;50.104;8.754;2022-12-07T08:31:04;12.33;;;6.60;;
22205;SDS011;11272;50.104;8.754;2022-12-07T08:33:36;13.90;;;6.77;;
22205;SDS011;11272;50.104;8.754;2022-12-07T08:36:04;14.03;;;6.50;;
22205;SDS011;11272;50.104;8.754;2022-12-07T08:38:33;14.57;;;6.80;;
22205;SDS011;11272;50.104;8.754;2022-12-07T08:40:59;12.97;;;6.10;;
22205;SDS011;11272;50.104;8.754;2022-12-07T08:43:25;12.00;;;6.40;;
22205;SDS011;11272;50.104;8.754;2022-12-07T08:45:54;13.23;;;6.50;;
22205;SDS011;11272;50.104;8.754;2022-12-07T08:48:26;11.63;;;6.20;;
22205;SDS011;11272;50.104;8.754;2022-12-07T08:50:52;10.33;;;5.43;;
22205;SDS011;11272;50.104;8.754;2022-12-07T08:53:17;9.33;;;5.33;;
22205;SDS011;11272;50.104;8.754;2022-12-07T08:55:46;11.23;;;5.93;;
22205;SDS011;11272;50.104;8.754;2022-12-07T08:58:12;10.23;;;5.60;;
22205;SDS011;11272;50.104;8.754;2022-12-07T09:00:38;10.30;;;5.67;;
22205;SDS011;11272;50.104;8.754;2022-12-07T09:03:04;14.43;;;6.80;;
22205;SDS011;11272;50.104;8.754;2022-12-07T09:05:30;12.60;;;6.63;;
22205;SDS011;11272;50.104;8.754;2022-12-07T09:07:57;13.23;;;5.97;;
22205;SDS011;11272;50.104;8.754;2022-12-07T09:10:26;12.90;;;6.20;;
22205;SDS011;11272;50.104;8.754;2022-12-07T09:12:52;12.00;;;5.90;;
22205;SDS011;11272;50.104;8.754;2022-12-07T09:15:18;10.57;;;5.57;;
22205;SDS011;11272;50.104;8.754;2022-12-07T09:17:43;11.57;;;6.40;;
22205;SDS011;11272;50.104;8.754;2022-12-07T09:20:09;12.27;;;6.43;;
22205;SDS011;11272;50.104;8.754;2022-12-07T09:22:35;17.70;;;6.73;;
22205;SDS011;11272;50.104;8.754;2022-12-07T09:25:01;12.93;;;6.47;;
22205;SDS011;11272;50.104;8.754;2022-12-07T09:27:27;10.93;;;5.83;;
22205;SDS011;11272;50.104;8.754;2022-12-07T09:35:45;5.93;;;3.70;;
22205;SDS011;11272;50.104;8.754;2022-12-07T09:38:15;10.40;;;5.10;;
22205;SDS011;11272;50.104;8.754;2022-12-07T09:40:41;8.63;;;5.53;;
22205;SDS011;11272;50.104;8.754;2022-12-07T09:43:27;8.10;;;5.27;;
22205;SDS011;11272;50.104;8.754;2022-12-07T09:45:53;8.90;;;5.33;;
22205;SDS011;11272;50.104;8.754;2022-12-07T09:48:22;9.87;;;5.20;;
22205;SDS011;11272;50.104;8.754;2022-12-07T09:50:54;9.53;;;5.10;;
22205;SDS011;11272;50.104;8.754;2022-12-07T09:53:27;9.53;;;5.20;;
22205;SDS011;11272;50.104;8.754;2022-12-07T09:55:55;11.57;;;4.83;;
22205;SDS011;11272;50.104;8.754;2022-12-07T09:58:25;7.97;;;5.20;;
22205;SDS011;11272;50.104;8.754;2022-12-07T10:00:53;8.27;;;5.20;;
22205;SDS011;11272;50.104;8.754;2022-12-07T10:03:25;10.47;;;4.43;;
22205;SDS011;11272;50.104;8.754;2022-12-07T10:05:51;5.67;;;3.73;;
22205;SDS011;11272;50.104;8.754;2022-12-07T10:08:18;6.67;;;3.60;;
22205;SDS011;11272;50.104;8.754;2022-12-07T10:10:45;6.67;;;4.17;;
22205;SDS011;11272;50.104;8.754;2022-12-07T10:13:14;7.53;;;4.13;;
22205;SDS011;11272;50.104;8.754;2022-12-07T10:15:54;9.57;;;4.00;;
22205;SDS011;11272;50.104;8.754;2022-12-07T10:21:08;5.10;;;3.47;;
22205;SDS011;11272;50.104;8.754;2022-12-07T10:26:38;5.77;;;3.60;;
22205;SDS011;11272;50.104;8.754;2022-12-07T10:31:58;4.57;;;3.03;;
22205;SDS011;11272;50.104;8.754;2022-12-07T10:34:32;6.17;;;3.70;;
22205;SDS011;11272;50.104;8.754;2022-12-07T10:39:45;6.13;;;3.43;;
22205;SDS011;11272;50.104;8.754;2022-12-07T10:42:28;8.47;;;3.63;;
22205;SDS011;11272;50.104;8.754;2022-12-07T10:45:14;6.67;;;3.40;;
22205;SDS011;11272;50.104;8.754;2022-12-07T10:47:59;7.23;;;3.83;;
22205;SDS011;11272;50.104;8.754;2022-12-07T10:53:39;6.03;;;3.40;;
22205;SDS011;11272;50.104;8.754;2022-12-07T10:59:01;4.20;;;2.73;;
22205;SDS011;11272;50.104;8.754;2022-12-07T11:01:50;9.10;;;2.40;;
22205;SDS011;11272;50.104;8.754;2022-12-07T11:04:58;6.53;;;1.73;;
22205;SDS011;11272;50.104;8.754;2022-12-07T11:10:35;6.50;;;1.70;;
22205;SDS011;11272;50.104;8.754;2022-12-07T11:23:49;3.87;;;1.83;;
22205;SDS011;11272;50.104;8.754;2022-12-07T11:32:34;10.33;;;2.20;;
22205;SDS011;11272;50.104;8.754;2022-12-07T11:35:28;5.60;;;2.07;;
22205;SDS011;11272;50.104;8.754;2022-12-07T11:37:56;6.40;;;2.10;;
22205;SDS011;11272;50.104;8.754;2022-12-07T11:40:28;5.27;;;2.30;;
22205;SDS011;11272;50.104;8.754;2022-12-07T11:43:05;4.77;;;2.13;;
22205;SDS011;11272;50.104;8.754;2022-12-07T11:45:41;7.80;;;2.70;;
22205;SDS011;11272;50.104;8.754;2022-12-07T11:48:16;4.57;;;2.50;;
22205;SDS011;11272;50.104;8.754;2022-12-07T11:50:51;5.33;;;2.33;;
22205;SDS011;11272;50.104;8.754;2022-12-07T11:53:21;8.33;;;2.20;;
22205;SDS011;11272;50.104;8.754;2022-12-07T11:56:31;3.40;;;2.23;;
22205;SDS011;11272;50.104;8.754;2022-12-07T11:58:53;8.00;;;3.20;;
22205;SDS011;11272;50.104;8.754;2022-12-07T12:06:36;4.83;;;2.30;;
22205;SDS011;11272;50.104;8.754;2022-12-07T12:09:17;5.40;;;2.70;;
22205;SDS011;11272;50.104;8.754;2022-12-07T12:17:38;5.80;;;2.13;;
22205;SDS011;11272;50.104;8.754;2022-12-07T12:20:23;4.77;;;1.70;;
22205;SDS011;11272;50.104;8.754;2022-12-07T12:23:07;4.10;;;1.37;;
22205;SDS011;11272;50.104;8.754;2022-12-07T12:25:50;3.40;;;1.53;;
22205;SDS011;11272;50.104;8.754;2022-12-07T12:28:22;3.10;;;1.73;;
22205;SDS011;11272;50.104;8.754;2022-12-07T12:31:11;4.13;;;1.83;;
22205;SDS011;11272;50.104;8.754;2022-12-07T12:33:42;6.93;;;1.87;;
22205;SDS011;11272;50.104;8.754;2022-12-07T12:43:59;3.17;;;1.70;;
22205;SDS011;11272;50.104;8.754;2022-12-07T12:51:50;5.40;;;1.67;;
22205;SDS011;11272;50.104;8.754;2022-12-07T12:59:42;4.27;;;1.50;;
22205;SDS011;11272;50.104;8.754;2022-12-07T13:04:57;7.40;;;1.57;;
22205;SDS011;11272;50.104;8.754;2022-12-07T13:30:34;4.05;;;1.60;;
22205;SDS011;11272;50.104;8.754;2022-12-07T13:33:10;2.40;;;1.43;;
22205;SDS011;11272;50.104;8.754;2022-12-07T13:35:43;3.70;;;1.63;;
22205;SDS011;11272;50.104;8.754;2022-12-07T13:58:33;4.30;;;1.20;;
22205;SDS011;11272;50.104;8.754;2022-12-07T14:12:29;4.13;;;1.37;;
22205;SDS011;11272;50.104;8.754;2022-12-07T14:14:57;2.83;;;1.33;;
22205;SDS011;11272;50.104;8.754;2022-12-07T14:17:25;2.47;;;1.23;;
22205;SDS011;11272;50.104;8.754;2022-12-07T14:22:53;2.30;;;1.10;;
22205;SDS011;11272;50.104;8.754;2022-12-07T14:28:09;4.87;;;1.23;;
22205;SDS011;11272;50.104;8.754;2022-12-07T14:36:45;2.57;;;1.50;;
22205;SDS011;11272;50.104;8.754;2022-12-07T14:39:10;3.47;;;1.33;;
22205;SDS011;11272;50.104;8.754;2022-12-07T14:41:37;2.77;;;1.43;;
22205;SDS011;11272;50.104;8.754;2022-12-07T14:44:36;8.03;;;1.50;;
22205;SDS011;11272;50.104;8.754;2022-12-07T14:47:01;3.40;;;1.40;;
22205;SDS011;11272;50.104;8.754;2022-12-07T14:49:27;5.67;;;1.63;;
22205;SDS011;11272;50.104;8.754;2022-12-07T14:51:52;3.27;;;1.73;;
22205;SDS011;11272;50.104;8.754;2022-12-07T14:57:15;2.13;;;1.50;;
22205;SDS011;11272;50.104;8.754;2022-12-07T15:13:34;3.37;;;1.30;;
22205;SDS011;11272;50.104;8.754;2022-12-07T15:16:28;2.20;;;1.13;;
22205;SDS011;11272;50.104;8.754;2022-12-07T15:43:03;7.40;;;3.73;;
22205;SDS011;11272;50.104;8.754;2022-12-07T15:45:29;11.47;;;3.87;;
22205;SDS011;11272;50.104;8.754;2022-12-07T15:47:55;7.37;;;3.00;;
22205;SDS011;11272;50.104;8.754;2022-12-07T15:50:21;8.80;;;2.90;;
22205;SDS011;11272;50.104;8.754;2022-12-07T15:52:47;5.63;;;2.73;;
22205;SDS011;11272;50.104;8.754;2022-12-07T15:55:13;10.10;;;2.90;;
22205;SDS011;11272;50.104;8.754;2022-12-07T15:57:42;4.03;;;2.63;;
22205;SDS011;11272;50.104;8.754;2022-12-07T16:00:08;7.00;;;2.37;;
22205;SDS011;11272;50.104;8.754;2022-12-07T16:02:36;4.70;;;2.43;;
22205;SDS011;11272;50.104;8.754;2022-12-07T16:05:03;7.47;;;2.67;;
22205;SDS011;11272;50.104;8.754;2022-12-07T16:07:29;3.10;;;1.93;;
22205;SDS011;11272;50.104;8.754;2022-12-07T16:12:44;2.83;;;1.80;;
22205;SDS011;11272;50.104;8.754;2022-12-07T16:18:05;5.50;;;2.60;;
22205;SDS011;11272;50.104;8.754;2022-12-07T16:23:27;6.17;;;2.83;;
22205;SDS011;11272;50.104;8.754;2022-12-07T16:26:00;6.77;;;3.07;;
22205;SDS011;11272;50.104;8.754;2022-12-07T16:28:29;9.00;;;2.73;;
22205;SDS011;11272;50.104;8.754;2022-12-07T16:42:30;6.67;;;2.70;;
22205;SDS011;11272;50.104;8.754;2022-12-07T16:53:24;12.10;;;2.57;;
22205;SDS011;11272;50.104;8.754;2022-12-07T17:04:25;10.67;;;2.53;;
22205;SDS011;11272;50.104;8.754;2022-12-07T17:06:51;5.37;;;2.20;;
22205;SDS011;11272;50.104;8.754;2022-12-07T17:24:11;4.03;;;2.10;;
22205;SDS011;11272;50.104;8.754;2022-12-07T17:26:38;7.80;;;2.20;;
22205;SDS011;11272;50.104;8.754;2022-12-07T17:29:04;5.40;;;2.07;;
22205;SDS011;11272;50.104;8.754;2022-12-07T17:31:33;4.73;;;1.83;;
22205;SDS011;11272;50.104;8.754;2022-12-07T17:33:58;7.97;;;1.60;;
22205;SDS011;11272;50.104;8.754;2022-12-07T17:36:25;6.20;;;1.80;;
22205;SDS011;11272;50.104;8.754;2022-12-07T17:38:52;2.70;;;1.53;;
22205;SDS011;11272;50.104;8.754;2022-12-07T17:41:25;4.60;;;1.60;;
22205;SDS011;11272;50.104;8.754;2022-12-07T17:44:15;4.40;;;2.23;;
22205;SDS011;11272;50.104;8.754;2022-12-07T17:46:42;3.73;;;1.83;;
22205;SDS011;11272;50.104;8.754;2022-12-07T17:49:09;5.37;;;2.50;;
22205;SDS011;11272;50.104;8.754;2022-12-07T17:51:35;3.73;;;1.77;;
22205;SDS011;11272;50.104;8.754;2022-12-07T17:54:20;5.83;;;2.00;;
22205;SDS011;11272;50.104;8.754;2022-12-07T17:56:45;6.53;;;2.73;;
22205;SDS011;11272;50.104;8.754;2022-12-07T17:59:11;8.50;;;2.53;;
22205;SDS011;11272;50.104;8.754;2022-12-07T18:01:38;10.33;;;2.10;;
22205;SDS011;11272;50.104;8.754;2022-12-07T18:04:05;5.03;;;2.47;;
22205;SDS011;11272;50.104;8.754;2022-12-07T18:06:31;7.73;;;2.03;;
22205;SDS011;11272;50.104;8.754;2022-12-07T18:11:48;4.10;;;2.13;;
22205;SDS011;11272;50.104;8.754;2022-12-07T18:14:14;4.07;;;2.33;;
22205;SDS011;11272;50.104;8.754;2022-12-07T18:16:41;7.13;;;1.90;;
22205;SDS011;11272;50.104;8.754;2022-12-07T18:19:06;8.07;;;1.50;;
22205;SDS011;11272;50.104;8.754;2022-12-07T18:21:33;3.63;;;1.90;;
22205;SDS011;11272;50.104;8.754;2022-12-07T18:23:59;2.77;;;1.60;;
22205;SDS011;11272;50.104;8.754;2022-12-07T18:29:24;8.33;;;2.83;;
22205;SDS011;11272;50.104;8.754;2022-12-07T18:31:50;4.50;;;2.27;;
22205;SDS011;11272;50.104;8.754;2022-12-07T18:34:16;2.87;;;1.90;;
22205;SDS011;11272;50.104;8.754;2022-12-07T18:36:44;6.33;;;2.33;;
22205;SDS011;11272;50.104;8.754;2022-12-07T18:39:11;4.57;;;2.20;;
22205;SDS011;11272;50.104;8.754;2022-12-07T18:41:38;8.03;;;2.30;;
22205;SDS011;11272;50.104;8.754;2022-12-07T18:46:54;4.23;;;2.30;;
22205;SDS011;11272;50.104;8.754;2022-12-07T18:49:21;8.93;;;2.43;;
22205;SDS011;11272;50.104;8.754;2022-12-07T18:51:48;2.97;;;1.80;;
22205;SDS011;11272;50.104;8.754;2022-12-07T18:57:10;6.77;;;2.50;;
22205;SDS011;11272;50.104;8.754;2022-12-07T19:02:24;4.60;;;2.33;;
22205;SDS011;11272;50.104;8.754;2022-12-07T19:04:51;8.93;;;3.30;;
22205;SDS011;11272;50.104;8.754;2022-12-07T19:07:17;16.20;;;4.80;;
22205;SDS011;11272;50.104;8.754;2022-12-07T19:09:43;7.53;;;3.70;;
22205;SDS011;11272;50.104;8.754;2022-12-07T19:12:10;4.40;;;3.07;;
22205;SDS011;11272;50.104;8.754;2022-12-07T19:17:11;6.07;;;2.53;;
22205;SDS011;11272;50.104;8.754;2022-12-07T19:19:39;7.13;;;3.37;;
22205;SDS011;11272;50.104;8.754;2022-12-07T19:22:06;6.03;;;2.70;;
22205;SDS011;11272;50.104;8.754;2022-12-07T19:24:33;6.83;;;2.60;;
22205;SDS011;11272;50.104;8.754;2022-12-07T19:26:59;6.23;;;2.83;;
22205;SDS011;11272;50.104;8.754;2022-12-07T19:29:24;5.37;;;2.50;;
22205;SDS011;11272;50.104;8.754;2022-12-07T19:31:55;5.33;;;3.27;;
22205;SDS011;11272;50.104;8.754;2022-12-07T19:34:22;10.67;;;3.17;;
22205;SDS011;11272;50.104;8.754;2022-12-07T19:36:47;4.93;;;2.80;;
22205;SDS011;11272;50.104;8.754;2022-12-07T19:39:13;6.00;;;3.00;;
22205;SDS011;11272;50.104;8.754;2022-12-07T19:41:39;6.00;;;3.60;;
22205;SDS011;11272;50.104;8.754;2022-12-07T19:46:37;7.23;;;3.30;;
22205;SDS011;11272;50.104;8.754;2022-12-07T19:49:04;8.83;;;3.53;;
22205;SDS011;11272;50.104;8.754;2022-12-07T19:51:30;7.60;;;3.00;;